createdAt,value
2017-07-19T00:01:57.268Z,13.03
2017-07-19T00:04:24.179Z,15.20
2017-07-19T00:06:51.091Z,12.67
2017-07-19T00:09:18.008Z,13.13
2017-07-19T00:11:44.839Z,13.73
2017-07-19T00:14:12.441Z,12.23
2017-07-19T00:16:39.388Z,12.57
2017-07-19T00:19:06.240Z,13.90
2017-07-19T00:21:33.062Z,12.73
2017-07-19T00:23:59.976Z,13.63
2017-07-19T00:26:26.806Z,13.57
2017-07-19T00:28:54.383Z,12.90
2017-07-19T00:31:22.032Z,14.97
2017-07-19T00:33:49.607Z,14.67
2017-07-19T00:36:16.430Z,15.50
2017-07-19T00:38:44.069Z,14.77
2017-07-19T00:41:10.887Z,14.90
2017-07-19T00:43:37.848Z,13.80
2017-07-19T00:46:04.688Z,15.23
2017-07-19T00:48:31.526Z,19.33
2017-07-19T00:50:58.444Z,13.77
2017-07-19T00:53:25.284Z,14.27
2017-07-19T00:55:52.135Z,14.50
2017-07-19T00:58:19.032Z,14.97
2017-07-19T01:00:45.915Z,13.40
2017-07-19T01:03:12.856Z,12.97
2017-07-19T01:05:40.248Z,13.47
2017-07-19T01:08:07.099Z,14.73
2017-07-19T01:10:34.037Z,12.50
2017-07-19T01:13:00.924Z,14.23
2017-07-19T01:15:27.778Z,12.83
2017-07-19T01:17:55.423Z,12.53
2017-07-19T01:20:22.331Z,12.23
2017-07-19T01:22:49.247Z,15.20
2017-07-19T01:25:16.080Z,16.13
2017-07-19T01:27:42.907Z,13.67
2017-07-19T01:30:09.804Z,14.67
2017-07-19T01:32:36.649Z,14.30
2017-07-19T01:35:03.473Z,14.97
2017-07-19T01:37:30.396Z,14.47
2017-07-19T01:39:57.255Z,13.80
2017-07-19T01:42:24.819Z,15.37
2017-07-19T01:44:51.833Z,13.90
2017-07-19T01:47:18.659Z,13.60
2017-07-19T01:49:45.476Z,14.97
2017-07-19T01:52:12.374Z,13.40
2017-07-19T01:54:39.208Z,15.10
2017-07-19T01:57:06.100Z,13.60
2017-07-19T01:59:32.954Z,13.37
2017-07-19T02:01:59.783Z,13.33
2017-07-19T02:04:26.679Z,14.10
2017-07-19T02:06:53.520Z,14.83
2017-07-19T02:09:20.388Z,15.10
2017-07-19T02:11:47.304Z,14.10
2017-07-19T02:14:14.145Z,13.67
2017-07-19T02:16:41.022Z,14.33
2017-07-19T02:19:07.972Z,14.50
2017-07-19T02:21:35.625Z,14.10
2017-07-19T02:24:02.547Z,13.80
2017-07-19T02:26:29.392Z,14.50
2017-07-19T02:28:56.228Z,14.73
2017-07-19T02:31:23.140Z,14.57
2017-07-19T02:33:49.975Z,13.97
2017-07-19T02:36:17.982Z,14.57
2017-07-19T02:38:44.935Z,14.30
2017-07-19T02:41:12.179Z,14.10
2017-07-19T02:43:38.987Z,15.57
2017-07-19T02:46:06.547Z,14.37
2017-07-19T02:48:33.439Z,14.27
2017-07-19T02:51:00.384Z,15.80
2017-07-19T02:53:27.225Z,15.70
2017-07-19T02:55:54.062Z,14.90
2017-07-19T02:58:20.967Z,15.83
2017-07-19T03:00:47.787Z,16.63
2017-07-19T03:03:14.625Z,14.73
2017-07-19T03:05:41.539Z,16.63
2017-07-19T03:08:08.363Z,15.60
2017-07-19T03:10:35.203Z,15.33
2017-07-19T03:13:02.107Z,14.83
2017-07-19T03:15:28.939Z,14.73
2017-07-19T03:17:55.761Z,15.97
2017-07-19T03:20:22.651Z,15.10
2017-07-19T03:22:49.564Z,14.50
2017-07-19T03:25:16.448Z,14.67
2017-07-19T03:27:44.042Z,16.13
2017-07-19T03:30:10.956Z,15.50
2017-07-19T03:32:38.536Z,14.93
2017-07-19T03:35:05.377Z,14.67
2017-07-19T03:37:32.285Z,14.90
2017-07-19T03:39:59.126Z,14.60
2017-07-19T03:42:25.948Z,16.60
2017-07-19T03:44:52.832Z,15.57
2017-07-19T03:47:20.433Z,14.67
2017-07-19T03:49:47.279Z,15.13
2017-07-19T03:52:14.184Z,15.83
2017-07-19T03:54:41.071Z,15.13
2017-07-19T03:57:07.980Z,14.97
2017-07-19T03:59:34.845Z,16.50
2017-07-19T04:02:06.986Z,14.40
2017-07-19T04:04:36.907Z,15.27
2017-07-19T04:07:08.240Z,17.00
2017-07-19T04:09:36.515Z,17.30
2017-07-19T04:12:11.439Z,16.63
2017-07-19T04:14:44.939Z,15.97
2017-07-19T04:17:16.921Z,15.83
2017-07-19T04:19:53.691Z,17.10
2017-07-19T04:22:21.183Z,16.73
2017-07-19T04:24:53.523Z,15.43
2017-07-19T04:27:31.832Z,15.80
2017-07-19T04:32:42.344Z,15.63
2017-07-19T04:35:10.324Z,17.20
2017-07-19T04:37:37.172Z,16.03
2017-07-19T04:40:04.863Z,15.67
2017-07-19T04:42:31.799Z,15.80
2017-07-19T04:44:59.335Z,16.83
2017-07-19T04:47:35.184Z,16.07
2017-07-19T04:50:03.682Z,17.80
2017-07-19T04:52:30.583Z,16.57
2017-07-19T04:54:58.222Z,19.60
2017-07-19T04:57:25.106Z,14.93
2017-07-19T04:59:52.914Z,16.03
2017-07-19T05:02:19.752Z,15.87
2017-07-19T05:04:46.600Z,16.97
2017-07-19T05:07:13.852Z,16.07
2017-07-19T05:09:40.736Z,15.40
2017-07-19T05:12:07.630Z,16.57
2017-07-19T05:14:34.459Z,16.70
2017-07-19T05:17:02.028Z,16.00
2017-07-19T05:19:28.970Z,17.13
2017-07-19T05:21:55.853Z,15.83
2017-07-19T05:24:22.711Z,13.93
2017-07-19T05:26:49.622Z,14.43
2017-07-19T05:29:16.461Z,13.57
2017-07-19T05:31:43.291Z,15.87
2017-07-19T05:34:10.203Z,14.70
2017-07-19T05:36:37.028Z,14.57
2017-07-19T05:39:04.024Z,14.80
2017-07-19T05:41:31.604Z,15.63
2017-07-19T05:43:58.413Z,14.13
2017-07-19T05:46:26.097Z,15.23
2017-07-19T05:48:52.941Z,14.10
2017-07-19T05:51:19.769Z,16.77
2017-07-19T05:53:46.669Z,14.60
2017-07-19T05:56:14.255Z,15.87
2017-07-19T05:58:41.160Z,13.30
2017-07-19T06:01:08.069Z,15.50
2017-07-19T06:03:35.634Z,14.80
2017-07-19T06:06:03.280Z,14.93
2017-07-19T06:08:30.176Z,15.60
2017-07-19T06:10:56.994Z,15.80
2017-07-19T06:13:23.835Z,13.57
2017-07-19T06:15:50.746Z,13.47
2017-07-19T06:18:17.589Z,15.07
2017-07-19T06:20:44.424Z,15.30
2017-07-19T06:23:11.401Z,14.10
2017-07-19T06:25:38.967Z,14.30
2017-07-19T06:28:06.559Z,15.37
2017-07-19T06:30:33.437Z,14.00
2017-07-19T06:33:00.345Z,15.30
2017-07-19T06:35:27.266Z,13.70
2017-07-19T06:37:54.849Z,15.70
2017-07-19T06:40:21.684Z,17.70
2017-07-19T06:42:48.606Z,12.37
2017-07-19T06:45:15.439Z,13.47
2017-07-19T06:47:42.455Z,13.10
2017-07-19T06:50:09.356Z,13.57
2017-07-19T06:52:36.281Z,14.47
2017-07-19T06:55:03.104Z,13.03
2017-07-19T06:57:29.992Z,15.33
2017-07-19T06:59:56.815Z,12.67
2017-07-19T07:02:24.447Z,14.80
2017-07-19T07:04:51.341Z,12.67
2017-07-19T07:07:18.915Z,14.77
2017-07-19T07:09:45.827Z,12.50
2017-07-19T07:12:12.642Z,13.30
2017-07-19T07:14:39.471Z,14.17
2017-07-19T07:17:06.384Z,13.47
2017-07-19T07:19:33.205Z,11.33
2017-07-19T07:22:00.754Z,13.07
2017-07-19T07:24:27.743Z,12.33
2017-07-19T07:26:54.585Z,13.70
2017-07-19T07:29:21.435Z,12.40
2017-07-19T07:31:48.334Z,12.20
2017-07-19T07:34:15.184Z,13.00
2017-07-19T07:36:42.012Z,12.13
2017-07-19T07:39:08.904Z,12.10
2017-07-19T07:41:35.743Z,10.33
2017-07-19T07:44:02.710Z,11.30
2017-07-19T07:46:29.626Z,10.10
2017-07-19T07:48:57.216Z,11.03
2017-07-19T07:51:24.065Z,11.60
2017-07-19T07:53:50.955Z,10.50
2017-07-19T07:56:17.803Z,9.37
2017-07-19T07:58:44.712Z,11.27
2017-07-19T08:01:11.596Z,10.40
2017-07-19T08:03:38.439Z,10.80
2017-07-19T08:06:05.274Z,10.43
2017-07-19T08:08:32.147Z,11.13
2017-07-19T08:10:59.811Z,10.10
2017-07-19T08:13:27.483Z,11.17
2017-07-19T08:15:54.297Z,10.60
2017-07-19T08:18:21.135Z,9.97
2017-07-19T08:20:48.023Z,10.27
2017-07-19T08:23:14.848Z,9.50
2017-07-19T08:25:41.816Z,9.30
2017-07-19T08:28:08.797Z,8.40
2017-07-19T08:30:35.682Z,7.90
2017-07-19T08:33:03.266Z,7.90
2017-07-19T08:35:30.344Z,13.73
2017-07-19T08:37:57.203Z,8.47
2017-07-19T08:40:24.026Z,8.67
2017-07-19T08:42:50.937Z,8.27
2017-07-19T08:45:17.864Z,8.10
2017-07-19T08:47:44.700Z,8.77
2017-07-19T08:50:11.544Z,7.70
2017-07-19T08:52:39.218Z,7.37
2017-07-19T08:55:06.784Z,7.90
2017-07-19T08:57:34.380Z,7.50
2017-07-19T09:00:01.268Z,7.73
2017-07-19T09:02:28.174Z,8.07
2017-07-19T09:04:55.003Z,8.27
2017-07-19T09:07:21.920Z,7.67
2017-07-19T09:09:48.908Z,7.40
2017-07-19T09:12:15.755Z,7.23
2017-07-19T09:14:42.645Z,8.83
2017-07-19T09:17:09.479Z,8.27
2017-07-19T09:19:36.378Z,8.70
2017-07-19T09:22:09.004Z,8.03
2017-07-19T09:24:36.800Z,7.67
2017-07-19T09:27:14.271Z,7.53
2017-07-19T09:29:41.487Z,18.80
2017-07-19T09:32:08.323Z,7.70
2017-07-19T09:34:35.143Z,7.00
2017-07-19T09:37:02.032Z,7.63
2017-07-19T09:39:28.852Z,6.87
2017-07-19T09:41:55.765Z,7.40
2017-07-19T09:44:23.428Z,7.30
2017-07-19T09:46:51.008Z,7.63
2017-07-19T09:49:17.968Z,6.57
2017-07-19T09:51:44.823Z,7.10
2017-07-19T09:54:20.143Z,7.37
2017-07-19T09:56:47.884Z,7.00
2017-07-19T09:59:15.567Z,6.60
2017-07-19T10:01:42.398Z,7.53
2017-07-19T10:04:09.296Z,7.83
2017-07-19T10:06:36.690Z,6.93
2017-07-19T10:09:05.361Z,7.00
2017-07-19T10:11:35.791Z,6.83
2017-07-19T10:14:06.803Z,8.03
2017-07-19T10:16:33.703Z,7.77
2017-07-19T10:19:01.268Z,8.37
2017-07-19T10:21:28.288Z,7.47
2017-07-19T10:23:55.765Z,8.53
2017-07-19T10:26:24.954Z,8.17
2017-07-19T10:28:51.873Z,8.17
2017-07-19T10:31:18.712Z,7.00
2017-07-19T10:33:46.193Z,7.53
2017-07-19T10:36:15.700Z,7.33
2017-07-19T10:38:43.203Z,7.00
2017-07-19T10:41:10.179Z,7.03
2017-07-19T10:43:37.012Z,6.83
2017-07-19T10:46:03.855Z,6.73
2017-07-19T10:48:30.735Z,6.47
2017-07-19T10:50:57.613Z,7.50
2017-07-19T10:53:24.547Z,7.07
2017-07-19T10:55:52.127Z,6.63
2017-07-19T10:58:18.955Z,6.73
2017-07-19T11:00:45.857Z,6.00
2017-07-19T11:03:12.725Z,6.27
2017-07-19T11:05:39.562Z,5.80
2017-07-19T11:08:06.476Z,6.63
2017-07-19T11:10:33.344Z,6.00
2017-07-19T11:13:00.199Z,7.13
2017-07-19T11:15:27.100Z,7.67
2017-07-19T11:17:54.015Z,6.00
2017-07-19T11:20:20.940Z,6.83
2017-07-19T11:22:47.819Z,6.73
2017-07-19T11:25:14.652Z,6.37
2017-07-19T11:27:41.578Z,6.87
2017-07-19T11:30:09.157Z,6.50
2017-07-19T11:32:36.076Z,6.53
2017-07-19T11:35:02.984Z,7.13
2017-07-19T11:37:29.806Z,6.70
2017-07-19T11:39:56.825Z,6.30
2017-07-19T11:42:24.403Z,6.30
2017-07-19T11:44:51.247Z,7.20
2017-07-19T11:47:18.222Z,7.13
2017-07-19T11:49:45.105Z,6.47
2017-07-19T11:52:12.021Z,6.30
2017-07-19T11:54:38.887Z,6.60
2017-07-19T11:57:05.733Z,7.20
2017-07-19T11:59:32.640Z,8.10
2017-07-19T12:01:59.473Z,7.50
2017-07-19T12:04:26.367Z,6.97
2017-07-19T12:06:53.278Z,6.43
2017-07-19T12:09:20.100Z,7.47
2017-07-19T12:11:47.018Z,7.30
2017-07-19T12:14:13.849Z,6.47
2017-07-19T12:16:40.760Z,7.10
2017-07-19T12:19:07.595Z,7.33
2017-07-19T12:21:34.441Z,7.13
2017-07-19T12:24:01.334Z,8.10
2017-07-19T12:26:28.162Z,7.57
2017-07-19T12:28:55.063Z,6.43
2017-07-19T12:31:21.894Z,7.60
2017-07-19T12:33:48.735Z,6.90
2017-07-19T12:36:15.651Z,6.90
2017-07-19T12:38:42.611Z,7.00
2017-07-19T12:41:09.704Z,6.80
2017-07-19T12:43:36.704Z,6.70
2017-07-19T12:46:10.588Z,7.70
2017-07-19T12:48:37.627Z,6.60
2017-07-19T12:51:04.600Z,12.87
2017-07-19T12:53:31.543Z,7.43
2017-07-19T12:55:58.558Z,7.37
2017-07-19T12:58:25.618Z,7.30
2017-07-19T13:00:52.562Z,6.90
2017-07-19T13:03:19.514Z,7.03
2017-07-19T13:05:46.414Z,7.10
2017-07-19T13:08:13.248Z,7.60
2017-07-19T13:10:40.849Z,7.20
2017-07-19T13:13:07.800Z,7.07
2017-07-19T13:15:34.757Z,6.97
2017-07-19T13:18:01.814Z,7.70
2017-07-19T13:20:28.793Z,8.57
2017-07-19T13:22:56.753Z,8.10
2017-07-19T13:25:23.780Z,7.93
2017-07-19T13:27:50.629Z,7.00
2017-07-19T13:30:17.449Z,8.00
2017-07-19T13:32:44.350Z,6.67
2017-07-19T13:35:11.167Z,8.00
2017-07-19T13:37:38.812Z,7.60
2017-07-19T13:40:05.645Z,7.13
2017-07-19T13:42:32.544Z,8.10
2017-07-19T13:44:59.525Z,7.73
2017-07-19T13:47:26.441Z,7.73
2017-07-19T13:49:53.256Z,7.60
2017-07-19T13:52:20.833Z,8.50
2017-07-19T13:54:48.480Z,8.13
2017-07-19T13:57:16.062Z,8.27
2017-07-19T13:59:42.943Z,7.60
2017-07-19T14:02:09.755Z,8.20
2017-07-19T14:04:36.588Z,7.27
2017-07-19T14:07:03.512Z,7.60
2017-07-19T14:09:30.331Z,7.73
2017-07-19T14:11:57.164Z,8.57
2017-07-19T14:14:24.048Z,8.43
2017-07-19T14:16:51.679Z,7.13
2017-07-19T14:19:18.605Z,8.10
2017-07-19T14:21:45.430Z,7.10
2017-07-19T14:24:12.259Z,7.57
2017-07-19T14:26:39.183Z,8.23
2017-07-19T14:29:06.004Z,8.47
2017-07-19T14:31:32.872Z,8.00
2017-07-19T14:33:59.772Z,8.03
2017-07-19T14:36:26.674Z,8.27
2017-07-19T14:38:53.504Z,7.80
2017-07-19T14:41:20.407Z,7.50
2017-07-19T14:43:47.224Z,6.93
2017-07-19T14:46:14.136Z,9.00
2017-07-19T14:48:40.974Z,8.30
2017-07-19T14:51:07.814Z,7.60
2017-07-19T14:53:34.720Z,11.53
2017-07-19T14:56:01.563Z,8.57
2017-07-19T14:58:28.396Z,7.63
2017-07-19T15:00:55.339Z,8.10
2017-07-19T15:03:22.151Z,8.53
2017-07-19T15:05:49.012Z,8.87
2017-07-19T15:08:16.643Z,9.07
2017-07-19T15:10:43.481Z,8.40
2017-07-19T15:13:10.380Z,7.77
2017-07-19T15:15:37.264Z,8.77
2017-07-19T15:18:04.089Z,7.90
2017-07-19T15:20:31.100Z,7.87
2017-07-19T15:22:58.038Z,8.13
2017-07-19T15:25:24.863Z,8.10
2017-07-19T15:27:51.764Z,8.13
2017-07-19T15:30:18.587Z,8.07
2017-07-19T15:32:45.409Z,6.93
2017-07-19T15:35:12.304Z,7.57
2017-07-19T15:37:39.185Z,7.40
2017-07-19T15:40:06.017Z,6.67
2017-07-19T15:42:32.990Z,7.20
2017-07-19T15:44:59.851Z,7.33
2017-07-19T15:47:26.683Z,8.23
2017-07-19T15:49:53.585Z,7.23
2017-07-19T15:52:20.412Z,7.20
2017-07-19T15:54:47.330Z,7.97
2017-07-19T15:57:14.339Z,8.50
2017-07-19T15:59:42.001Z,7.30
2017-07-19T16:02:09.011Z,7.30
2017-07-19T16:04:35.944Z,8.57
2017-07-19T16:07:02.910Z,8.10
2017-07-19T16:09:29.890Z,7.60
2017-07-19T16:11:56.882Z,7.30
2017-07-19T16:14:23.906Z,8.17
2017-07-19T16:16:50.811Z,7.83
2017-07-19T16:19:17.641Z,7.87
2017-07-19T16:21:44.545Z,7.70
2017-07-19T16:24:11.367Z,8.10
2017-07-19T16:26:38.204Z,7.67
2017-07-19T16:29:05.078Z,7.33
2017-07-19T16:31:31.972Z,7.10
2017-07-19T16:33:58.806Z,7.60
2017-07-19T16:36:25.780Z,7.60
2017-07-19T16:38:52.704Z,7.90
2017-07-19T16:41:19.560Z,7.10
2017-07-19T16:43:46.413Z,7.00
2017-07-19T16:46:13.298Z,8.90
2017-07-19T16:48:40.167Z,6.77
2017-07-19T16:51:07.055Z,6.83
2017-07-19T16:53:33.981Z,6.57
2017-07-19T16:56:00.822Z,7.27
2017-07-19T16:58:27.660Z,6.43
2017-07-19T17:00:54.607Z,7.97
2017-07-19T17:03:21.456Z,8.80
2017-07-19T17:05:48.284Z,7.77
2017-07-19T17:08:15.170Z,6.60
2017-07-19T17:10:42.007Z,10.30
2017-07-19T17:13:09.071Z,7.50
2017-07-19T17:15:36.642Z,8.20
2017-07-19T17:18:03.490Z,8.07
2017-07-19T17:20:30.391Z,8.13
2017-07-19T17:22:57.232Z,7.57
2017-07-19T17:25:24.128Z,8.13
2017-07-19T17:27:51.110Z,7.20
2017-07-19T17:30:17.929Z,7.67
2017-07-19T17:32:44.852Z,12.47
2017-07-19T17:35:11.742Z,7.20
2017-07-19T17:37:38.550Z,6.80
2017-07-19T17:40:05.464Z,8.47
2017-07-19T17:42:32.320Z,9.50
2017-07-19T17:44:59.875Z,6.63
2017-07-19T17:47:27.529Z,10.33
2017-07-19T17:49:54.358Z,7.60
2017-07-19T17:52:21.171Z,8.30
2017-07-19T17:54:48.078Z,7.90
2017-07-19T17:57:15.638Z,11.13
2017-07-19T17:59:43.227Z,7.37
2017-07-19T18:02:10.132Z,8.37
2017-07-19T18:04:37.025Z,7.03
2017-07-19T18:07:03.865Z,9.27
2017-07-19T18:09:30.771Z,8.10
2017-07-19T18:11:58.340Z,8.13
2017-07-19T18:14:25.923Z,9.80
2017-07-19T18:16:52.813Z,10.40
2017-07-19T18:19:19.648Z,8.63
2017-07-19T18:21:46.498Z,8.00
2017-07-19T18:24:13.403Z,8.23
2017-07-19T18:26:40.306Z,10.70
2017-07-19T18:29:07.127Z,9.57
2017-07-19T18:31:34.040Z,10.20
2017-07-19T18:34:00.936Z,8.20
2017-07-19T18:36:27.764Z,6.93
2017-07-19T18:38:54.667Z,7.73
2017-07-19T18:41:21.492Z,10.00
2017-07-19T18:43:48.319Z,13.33
2017-07-19T18:46:15.297Z,16.43
2017-07-19T18:48:42.130Z,17.83
2017-07-19T18:51:08.964Z,13.40
2017-07-19T18:53:36.612Z,13.53
2017-07-19T18:56:03.428Z,14.90
2017-07-19T18:58:30.364Z,9.93
2017-07-19T19:00:57.175Z,9.27
2017-07-19T19:03:26.131Z,13.93
2017-07-19T19:05:53.049Z,11.60
2017-07-19T19:08:19.863Z,10.50
2017-07-19T19:10:46.692Z,11.80
2017-07-19T19:13:14.199Z,10.67
2017-07-19T19:15:41.043Z,13.80
2017-07-19T19:18:07.876Z,10.87
2017-07-19T19:20:34.762Z,10.03
2017-07-19T19:23:01.591Z,23.00
2017-07-19T19:25:28.416Z,11.23
2017-07-19T19:27:55.319Z,11.20
2017-07-19T19:30:22.154Z,11.87
2017-07-19T19:32:49.077Z,9.47
2017-07-19T19:35:15.920Z,10.10
2017-07-19T19:37:42.740Z,10.97
2017-07-19T19:40:11.621Z,11.23
2017-07-19T19:42:38.451Z,11.50
2017-07-19T19:45:05.385Z,10.40
2017-07-19T19:47:32.403Z,11.10
2017-07-19T19:50:00.082Z,10.93
2017-07-19T19:52:27.020Z,15.53
2017-07-19T19:54:54.027Z,11.70
2017-07-19T19:57:20.964Z,10.63
2017-07-19T19:59:47.859Z,13.23
2017-07-19T20:02:14.708Z,12.83
2017-07-19T20:04:42.300Z,11.77
2017-07-19T20:07:09.205Z,10.33
2017-07-19T20:09:36.772Z,12.77
2017-07-19T20:12:04.341Z,13.40
2017-07-19T20:14:32.833Z,12.50
2017-07-19T20:16:59.655Z,12.20
2017-07-19T20:19:26.549Z,14.83
2017-07-19T20:21:53.401Z,15.10
2017-07-19T20:24:20.308Z,14.67
2017-07-19T20:26:47.893Z,17.07
2017-07-19T20:29:14.719Z,14.07
2017-07-19T20:31:41.701Z,15.00
2017-07-19T20:34:08.590Z,13.17
2017-07-19T20:36:36.167Z,14.17
2017-07-19T20:39:03.942Z,14.03
2017-07-19T20:41:30.894Z,14.70
2017-07-19T20:43:57.740Z,13.50
2017-07-19T20:46:24.566Z,14.77
2017-07-19T20:48:52.241Z,14.23
2017-07-19T20:51:19.076Z,14.20
2017-07-19T20:53:45.893Z,14.77
2017-07-19T20:56:12.800Z,15.33
2017-07-19T20:58:39.627Z,14.90
2017-07-19T21:01:06.479Z,14.73
2017-07-19T21:03:33.397Z,17.53
2017-07-19T21:06:00.235Z,15.97
2017-07-19T21:08:27.891Z,13.10
2017-07-19T21:10:55.464Z,14.10
2017-07-19T21:13:22.349Z,13.23
2017-07-19T21:15:49.333Z,15.30
2017-07-19T21:18:16.172Z,15.37
2017-07-19T21:20:43.130Z,15.63
2017-07-19T21:23:10.703Z,17.13
2017-07-19T21:25:38.265Z,14.87
2017-07-19T21:28:05.176Z,14.80
2017-07-19T21:30:32.000Z,16.10
2017-07-19T21:32:58.879Z,14.57
2017-07-19T21:35:26.524Z,17.97
2017-07-19T21:37:53.364Z,16.93
2017-07-19T21:40:20.265Z,14.03
2017-07-19T21:42:47.340Z,15.50
2017-07-19T21:45:14.603Z,17.60
2017-07-19T21:47:43.447Z,16.10
2017-07-19T21:50:12.075Z,13.60
2017-07-19T21:52:40.095Z,16.30
2017-07-19T21:55:09.650Z,15.43
2017-07-19T21:57:37.721Z,18.37
2017-07-19T22:00:08.193Z,14.83
2017-07-19T22:02:37.188Z,16.07
2017-07-19T22:05:06.938Z,14.43
2017-07-19T22:07:34.977Z,16.60
2017-07-19T22:10:04.262Z,15.17
2017-07-19T22:12:32.140Z,19.20
2017-07-19T22:15:01.100Z,16.47
2017-07-19T22:17:30.065Z,14.57
2017-07-19T22:19:58.506Z,17.43
2017-07-19T22:22:27.815Z,15.67
2017-07-19T22:24:56.773Z,14.47
2017-07-19T22:27:25.043Z,16.20
2017-07-19T22:29:55.077Z,15.37
2017-07-19T22:32:26.129Z,17.13
2017-07-19T22:34:55.874Z,16.43
2017-07-19T22:37:27.696Z,14.83
2017-07-19T22:40:00.650Z,15.57
2017-07-19T22:42:39.411Z,13.50
2017-07-19T22:45:10.356Z,15.57
2017-07-19T22:47:49.783Z,15.43
2017-07-19T22:50:27.224Z,15.33
2017-07-19T22:53:00.659Z,14.40
2017-07-19T22:55:40.052Z,13.70
2017-07-19T22:58:17.800Z,14.03
2017-07-19T23:00:57.058Z,14.50
2017-07-19T23:03:25.378Z,16.33
2017-07-19T23:05:53.432Z,12.67
2017-07-19T23:08:29.841Z,15.37
2017-07-19T23:11:08.529Z,15.33
2017-07-19T23:13:46.555Z,16.67
2017-07-19T23:16:19.374Z,18.00
2017-07-19T23:18:57.076Z,20.97
2017-07-19T23:21:34.772Z,17.17
2017-07-19T23:24:14.881Z,19.37
2017-07-19T23:26:46.975Z,17.30
2017-07-19T23:29:14.444Z,17.67
2017-07-19T23:31:43.259Z,17.30
2017-07-19T23:34:12.202Z,17.30
2017-07-19T23:36:39.115Z,18.40
2017-07-19T23:39:05.959Z,18.20
2017-07-19T23:41:34.426Z,17.93
2017-07-19T23:44:04.888Z,17.90
2017-07-19T23:46:31.910Z,17.30
2017-07-19T23:48:59.484Z,15.23
2017-07-19T23:51:26.386Z,14.47
2017-07-19T23:53:53.272Z,17.23
2017-07-19T23:56:20.184Z,16.30
2017-07-19T23:58:47.104Z,16.33
